University Oxford Airport Oxford US
ICAO: KUOX
IATA: UOX
Category: Medium
Scheduled Services: No

Elevation: 452 ft
TransAlt. 18000 ft.

Airport Communications:
AWOS 3:132.725
MEMPHIS CNTR:128.5
CTAF/UNICOM:123

KUOX Zoom In..

Runways:

(A) RW 09 length 5600 ft width 100 ft
LOC 111.70 / hdg 90

(B) RW 27 length 5600 ft width 100 ft
LOC 111.70 / hdg 270

Location; KUOX
Day. 21 / Time. 19.35 Zulu
* Altimeter: 30.06
* Temperature: 21° c. 69.8°f.
* Wind from: VRB° Speed 06 kn with Gusts up to 13 kn.
Dewpoint: 11° c.
Visibility: 10 Statute Miles.
Clouds: Few 4100 ft.

KUOX 211935Z AUTO VRB06G13KT 10SM FEW041 21/11 A3006 RMK AO2


Wind From VRB°
Speed 06 kn.

jpsM music video
CHECK IT OUT

jpsM - It Moves..

 
jpsmedia.com for Web Design  worldairports.se 2018   terms of use